Time;durP1;ratioP1;P1;durP2;ratioP2;P2;SDS_P1;SDS_P2;PMS_P1;PMS_P2;Temp;Humidity;BMP_temperature;BMP_pressure;BME280_temperature;BME280_humidity;BME280_pressure;Samples;Min_cycle;Max_cycle;Signal;HPM_P1;HPM_P2
2022/10/30 00:00:47;;;;;;;8.50;4.18;;;15.90;99.90;;;;;;4971991;28;20035;-71
2022/10/30 00:03:14;;;;;;;23.85;10.07;;;16.00;99.90;;;;;;4970178;28;20027;-71
2022/10/30 00:05:45;;;;;;;148.45;55.95;;;16.00;99.90;;;;;;4972198;28;20046;-71
2022/10/30 00:08:14;;;;;;;16.10;8.68;;;16.00;99.90;;;;;;4971967;28;20035;-71
2022/10/30 00:10:40;;;;;;;18.27;4.25;;;16.00;99.90;;;;;;4970802;28;20042;-71
2022/10/30 00:13:07;;;;;;;35.72;12.48;;;16.00;99.90;;;;;;4969855;28;20030;-71
2022/10/30 00:15:33;;;;;;;16.65;6.20;;;16.00;99.90;;;;;;4970741;28;20110;-71
2022/10/30 00:17:59;;;;;;;15.63;6.45;;;16.10;99.90;;;;;;4970822;28;20023;-71
2022/10/30 00:20:24;;;;;;;16.65;5.13;;;16.10;99.90;;;;;;4970770;28;20034;-71
2022/10/30 00:22:50;;;;;;;21.13;6.57;;;16.10;99.90;;;;;;4971217;28;20461;-71
2022/10/30 00:25:16;;;;;;;23.45;5.75;;;16.10;99.90;;;;;;4971692;28;20035;-70
2022/10/30 00:27:41;;;;;;;6.50;3.90;;;16.20;99.90;;;;;;4973196;28;20045;-71
2022/10/30 00:30:08;;;;;;;9.75;2.88;;;16.10;99.90;;;;;;4975879;28;20030;-71
2022/10/30 00:32:34;;;;;;;8.60;4.20;;;16.00;99.90;;;;;;4975229;28;20035;-71
2022/10/30 00:35:00;;;;;;;10.65;4.00;;;16.00;99.90;;;;;;4975746;28;20046;-71
2022/10/30 00:37:25;;;;;;;7.03;3.42;;;16.00;99.90;;;;;;4975792;28;20479;-70
2022/10/30 00:39:51;;;;;;;9.38;3.17;;;16.00;99.90;;;;;;4975356;28;20027;-70
2022/10/30 00:42:17;;;;;;;10.60;3.55;;;15.90;99.90;;;;;;4974928;28;20043;-71
2022/10/30 00:44:43;;;;;;;19.52;5.03;;;15.80;99.90;;;;;;4974349;28;20065;-71
2022/10/30 00:47:42;;;;;;;11.02;3.72;;;15.80;99.90;;;;;;4980514;28;20117;-71
2022/10/30 00:50:24;;;;;;;6.95;3.22;;;15.80;99.90;;;;;;4979236;28;20066;-71
2022/10/30 00:53:11;;;;;;;15.80;4.32;;;15.80;99.90;;;;;;4994331;28;20505;-71
2022/10/30 00:55:50;;;;;;;8.48;3.63;;;15.90;99.90;;;;;;4994610;28;20038;-71
2022/10/30 00:58:23;;;;;;;6.35;3.28;;;15.80;99.90;;;;;;4978090;28;20030;-71
2022/10/30 01:00:53;;;;;;;8.05;3.70;;;15.80;99.90;;;;;;4977767;28;20038;-71
2022/10/30 01:03:21;;;;;;;9.60;3.75;;;15.80;99.90;;;;;;4976265;28;20027;-71
2022/10/30 01:05:56;;;;;;;7.00;3.15;;;15.80;99.90;;;;;;4964109;28;20510;-71
2022/10/30 01:08:22;;;;;;;16.23;3.55;;;15.80;99.90;;;;;;4970138;28;20035;-71
2022/10/30 01:10:49;;;;;;;12.57;2.97;;;15.80;99.90;;;;;;4976176;28;20026;-71
2022/10/30 01:13:18;;;;;;;8.23;3.03;;;15.80;99.90;;;;;;4976261;28;20030;-70
2022/10/30 01:16:13;;;;;;;13.30;3.17;;;15.80;99.90;;;;;;4967833;28;20035;-70
2022/10/30 01:19:08;;;;;;;6.95;2.80;;;15.80;99.90;;;;;;4951849;28;20101;-71
2022/10/30 01:22:08;;;;;;;7.18;2.55;;;15.90;99.90;;;;;;4931315;28;20430;-71
2022/10/30 01:25:40;;;;;;;7.07;2.97;;;15.90;99.90;;;;;;4954376;28;20038;-70
2022/10/30 01:28:27;;;;;;;16.75;3.03;;;15.90;99.90;;;;;;4993817;28;20081;-71
2022/10/30 01:31:41;;;;;;;11.45;2.85;;;15.90;99.90;;;;;;4976632;28;20065;-71
2022/10/30 01:34:36;;;;;;;11.90;3.33;;;15.90;99.90;;;;;;4979152;28;20066;-71
2022/10/30 01:37:31;;;;;;;7.28;3.78;;;15.90;99.90;;;;;;4977672;28;20037;-71
2022/10/30 01:40:12;;;;;;;8.18;3.50;;;15.90;99.90;;;;;;4972096;28;20128;-71
2022/10/30 01:42:58;;;;;;;9.77;3.60;;;15.90;99.90;;;;;;4937539;29;20035;-70
2022/10/30 01:45:49;;;;;;;4.65;2.42;;;15.90;99.90;;;;;;4938266;29;20047;-71
2022/10/30 01:48:52;;;;;;;9.73;3.90;;;15.80;99.90;;;;;;4955226;28;20091;-70
2022/10/30 01:51:50;;;;;;;5.60;2.33;;;15.80;99.90;;;;;;4954985;28;20515;-71
2022/10/30 01:54:45;;;;;;;5.45;2.72;;;15.80;99.90;;;;;;4922892;29;20070;-71
2022/10/30 01:57:20;;;;;;;19.33;4.13;;;15.80;99.90;;;;;;4954659;28;20412;-71
2022/10/30 02:00:08;;;;;;;5.63;2.83;;;15.80;99.90;;;;;;4953490;29;20030;-71
2022/10/30 02:02:34;;;;;;;5.97;2.53;;;15.80;99.90;;;;;;4953853;28;20105;-70
2022/10/30 02:05:00;;;;;;;6.85;2.10;;;15.80;99.90;;;;;;4937758;29;20055;-72
2022/10/30 02:07:26;;;;;;;9.70;2.85;;;15.80;99.90;;;;;;4937608;29;20322;-70
2022/10/30 02:09:53;;;;;;;6.97;2.67;;;15.80;99.90;;;;;;4937258;29;20102;-70
2022/10/30 02:12:21;;;;;;;9.63;3.20;;;15.80;99.90;;;;;;4953812;29;20086;-71
2022/10/30 02:14:51;;;;;;;8.35;4.18;;;15.70;99.90;;;;;;4944807;28;20085;-71
2022/10/30 02:17:18;;;;;;;11.60;4.20;;;15.70;99.90;;;;;;4976197;28;20133;-70
2022/10/30 02:19:44;;;;;;;14.98;3.45;;;15.70;99.90;;;;;;4975984;28;20084;-72
2022/10/30 02:22:10;;;;;;;8.93;3.15;;;15.70;99.90;;;;;;4992590;28;20074;-70
2022/10/30 02:24:36;;;;;;;11.38;2.90;;;15.70;99.90;;;;;;4975000;28;20033;-71
2022/10/30 02:27:03;;;;;;;14.98;2.75;;;15.60;99.90;;;;;;4991605;28;20030;-71
2022/10/30 02:29:28;;;;;;;11.80;4.03;;;15.60;99.90;;;;;;4975504;28;20486;-71
2022/10/30 02:31:54;;;;;;;9.15;3.33;;;15.60;99.90;;;;;;4975586;28;20030;-71
2022/10/30 02:34:20;;;;;;;7.57;2.97;;;15.60;99.90;;;;;;4992292;28;20505;-70
2022/10/30 02:36:46;;;;;;;7.88;2.88;;;15.60;99.90;;;;;;4975301;28;20026;-72
2022/10/30 02:39:11;;;;;;;6.68;2.90;;;15.60;99.90;;;;;;4975605;28;20038;-72
2022/10/30 02:41:37;;;;;;;6.65;3.05;;;15.60;99.90;;;;;;4959196;28;20925;-72
2022/10/30 02:44:05;;;;;;;10.50;2.95;;;15.60;99.90;;;;;;4991964;28;20084;-72
2022/10/30 02:46:31;;;;;;;6.38;3.17;;;15.60;99.90;;;;;;4975489;28;20037;-72
2022/10/30 02:48:57;;;;;;;12.20;3.22;;;15.60;99.90;;;;;;4992332;28;20041;-72
2022/10/30 02:51:22;;;;;;;5.88;3.08;;;15.60;99.90;;;;;;4972212;23;20059;-66
2022/10/30 02:53:48;;;;;;;6.60;3.35;;;15.70;99.90;;;;;;4954829;28;20043;-66
2022/10/30 02:56:14;;;;;;;5.43;2.90;;;15.70;99.90;;;;;;4953637;28;20093;-67
2022/10/30 02:58:41;;;;;;;7.25;3.42;;;15.80;99.90;;;;;;4953187;28;20031;-66
2022/10/30 03:01:14;;;;;;;11.40;3.83;;;15.90;99.90;;;;;;4941524;28;20036;-67
2022/10/30 03:03:40;;;;;;;8.40;4.07;;;15.90;99.90;;;;;;4932464;29;20055;-67
2022/10/30 03:06:09;;;;;;;7.35;3.58;;;15.90;99.90;;;;;;4933252;29;20493;-67
2022/10/30 03:08:36;;;;;;;8.45;3.17;;;15.80;99.90;;;;;;4934661;29;20036;-67
2022/10/30 03:11:12;;;;;;;9.35;3.83;;;15.80;99.90;;;;;;4933079;29;20074;-67
2022/10/30 03:13:39;;;;;;;5.28;2.70;;;15.70;99.90;;;;;;4931989;29;20106;-68
2022/10/30 03:16:12;;;;;;;7.60;3.72;;;15.70;99.90;;;;;;4937726;29;20024;-67
2022/10/30 03:18:39;;;;;;;9.55;4.72;;;15.70;99.90;;;;;;4917276;29;20392;-67
2022/10/30 03:21:07;;;;;;;8.90;4.03;;;15.70;99.90;;;;;;4933217;29;20020;-70
2022/10/30 03:23:34;;;;;;;9.77;4.05;;;15.70;99.90;;;;;;4932108;29;20502;-70
2022/10/30 03:26:00;;;;;;;15.10;3.85;;;15.70;99.90;;;;;;4932892;29;20031;-69
2022/10/30 03:28:28;;;;;;;11.15;3.70;;;15.70;99.90;;;;;;4932635;29;20040;-70
2022/10/30 03:31:00;;;;;;;11.85;3.63;;;15.70;99.90;;;;;;4932874;29;20051;-69
2022/10/30 03:33:26;;;;;;;6.03;3.20;;;15.70;99.90;;;;;;4932217;29;20034;-69
2022/10/30 03:35:51;;;;;;;8.35;3.40;;;15.70;99.90;;;;;;4933906;29;20396;-69
2022/10/30 03:38:17;;;;;;;9.30;2.80;;;15.70;99.90;;;;;;4933702;29;20032;-70
2022/10/30 03:40:43;;;;;;;8.32;3.42;;;15.70;99.90;;;;;;4933949;29;20032;-69
2022/10/30 03:43:09;;;;;;;6.07;2.70;;;15.70;99.90;;;;;;4933059;29;20122;-70
2022/10/30 03:45:35;;;;;;;9.13;3.88;;;15.70;99.90;;;;;;4933880;29;20035;-70
2022/10/30 03:48:02;;;;;;;11.30;3.00;;;15.70;99.90;;;;;;4933764;29;20036;-69
2022/10/30 03:50:28;;;;;;;5.97;3.10;;;15.70;99.90;;;;;;4933487;29;20039;-70
2022/10/30 03:52:55;;;;;;;13.00;3.15;;;15.70;99.90;;;;;;4931942;29;20035;-68
2022/10/30 03:55:22;;;;;;;7.43;3.15;;;15.60;99.90;;;;;;4933529;29;20028;-67
2022/10/30 03:57:48;;;;;;;5.40;3.22;;;15.60;99.90;;;;;;4934018;29;20464;-67
2022/10/30 04:00:15;;;;;;;10.77;3.53;;;15.60;99.90;;;;;;4933319;29;20040;-69
2022/10/30 04:02:50;;;;;;;11.23;3.25;;;15.60;99.90;;;;;;4932489;29;20027;-70
2022/10/30 04:05:19;;;;;;;5.78;2.63;;;15.50;99.90;;;;;;4916655;29;20476;-70
2022/10/30 04:07:45;;;;;;;4.53;2.35;;;15.50;99.90;;;;;;4932171;29;20057;-70
2022/10/30 04:10:13;;;;;;;8.77;2.88;;;15.50;99.90;;;;;;4933341;29;20063;-70
2022/10/30 04:12:38;;;;;;;5.50;2.13;;;15.50;99.90;;;;;;4915550;29;20032;-69
2022/10/30 04:15:07;;;;;;;5.22;2.53;;;15.50;99.90;;;;;;4939358;29;20081;-70
2022/10/30 04:17:33;;;;;;;11.70;3.20;;;15.40;99.90;;;;;;4951460;29;20031;-69
2022/10/30 04:19:59;;;;;;;10.38;3.15;;;15.40;99.90;;;;;;4951312;28;20055;-69
2022/10/30 04:22:25;;;;;;;10.82;3.65;;;15.30;99.90;;;;;;4950491;29;20039;-70
2022/10/30 04:24:52;;;;;;;6.65;3.67;;;15.20;99.90;;;;;;4951249;29;20511;-69
2022/10/30 04:27:19;;;;;;;5.25;2.80;;;15.10;99.90;;;;;;4952335;28;20070;-69
2022/10/30 04:29:46;;;;;;;9.65;3.63;;;15.10;99.90;;;;;;4952352;28;20547;-70
2022/10/30 04:32:11;;;;;;;7.57;2.92;;;15.10;99.90;;;;;;4951226;29;20038;-70
2022/10/30 04:34:38;;;;;;;6.88;3.35;;;15.10;99.90;;;;;;4952030;28;20035;-69
2022/10/30 04:37:07;;;;;;;6.30;3.40;;;15.00;99.90;;;;;;4935126;29;20057;-69
2022/10/30 04:39:32;;;;;;;8.77;3.08;;;15.00;99.90;;;;;;4952469;28;20031;-69
2022/10/30 04:41:58;;;;;;;6.18;3.38;;;14.90;99.90;;;;;;4952329;28;20369;-69
2022/10/30 04:44:24;;;;;;;11.07;4.15;;;14.90;99.90;;;;;;4951629;29;20031;-69
2022/10/30 04:46:51;;;;;;;9.80;3.42;;;14.80;99.90;;;;;;4952265;29;20035;-69
2022/10/30 04:49:17;;;;;;;15.90;4.20;;;14.80;99.90;;;;;;4950807;29;20030;-69
2022/10/30 04:51:42;;;;;;;9.75;3.78;;;14.80;99.90;;;;;;4952091;28;20035;-69
2022/10/30 04:54:08;;;;;;;6.53;3.15;;;14.80;99.90;;;;;;4935549;28;20039;-68
2022/10/30 04:56:34;;;;;;;10.00;2.70;;;14.80;99.90;;;;;;4931489;29;20127;-69
2022/10/30 04:58:59;;;;;;;7.13;3.15;;;14.80;99.90;;;;;;4932819;29;20187;-69
2022/10/30 05:01:25;;;;;;;7.85;2.75;;;14.70;99.90;;;;;;4932696;29;20032;-69
2022/10/30 05:03:51;;;;;;;5.30;2.72;;;14.80;99.90;;;;;;4932265;29;20365;-69
2022/10/30 05:06:21;;;;;;;11.25;3.90;;;14.70;99.90;;;;;;4932856;29;20050;-68
2022/10/30 05:08:48;;;;;;;9.77;3.13;;;14.70;99.90;;;;;;4933276;29;20040;-69
2022/10/30 05:11:14;;;;;;;5.05;2.60;;;14.60;99.90;;;;;;4932958;29;20040;-69
2022/10/30 05:13:40;;;;;;;9.30;3.75;;;14.70;99.90;;;;;;4933435;29;20034;-68
2022/10/30 05:16:06;;;;;;;9.48;3.67;;;14.60;99.90;;;;;;4948623;29;20054;-68
2022/10/30 05:18:32;;;;;;;9.65;4.43;;;14.60;99.90;;;;;;4955700;28;20055;-68
2022/10/30 05:20:57;;;;;;;11.40;4.85;;;14.60;99.90;;;;;;4954032;28;20566;-68
2022/10/30 05:23:23;;;;;;;18.73;5.07;;;14.60;99.90;;;;;;4954908;29;20035;-68
2022/10/30 05:25:49;;;;;;;11.27;5.63;;;14.60;99.90;;;;;;4955481;29;20114;-69
2022/10/30 05:28:15;;;;;;;9.93;5.07;;;14.60;99.90;;;;;;4955238;28;20062;-69
2022/10/30 05:30:41;;;;;;;13.45;5.15;;;14.50;99.90;;;;;;4955275;28;20100;-69
2022/10/30 05:33:10;;;;;;;11.73;4.82;;;14.50;99.90;;;;;;4954736;28;20039;-69
2022/10/30 05:35:36;;;;;;;7.82;3.40;;;14.50;99.90;;;;;;4953956;29;20031;-69
2022/10/30 05:38:05;;;;;;;9.05;4.03;;;14.40;99.90;;;;;;4954055;29;20110;-69
2022/10/30 05:40:32;;;;;;;10.68;3.95;;;14.40;99.90;;;;;;4953880;28;20491;-68
2022/10/30 05:42:58;;;;;;;12.52;4.40;;;14.30;99.90;;;;;;4953104;29;20039;-69
2022/10/30 05:45:24;;;;;;;7.40;3.45;;;14.30;99.90;;;;;;4955366;28;20031;-69
2022/10/30 05:48:03;;;;;;;9.48;4.53;;;14.30;99.90;;;;;;4955179;28;20427;-69
2022/10/30 05:50:30;;;;;;;10.25;4.22;;;14.20;99.90;;;;;;4955046;28;20423;-69
2022/10/30 05:53:01;;;;;;;12.20;4.72;;;14.30;99.90;;;;;;4952905;29;20553;-69
2022/10/30 05:55:28;;;;;;;16.42;4.40;;;14.30;99.90;;;;;;4954946;28;20039;-68
2022/10/30 05:58:02;;;;;;;14.60;4.47;;;14.40;99.90;;;;;;4953526;29;20179;-68
2022/10/30 06:00:33;;;;;;;11.25;4.82;;;14.40;99.90;;;;;;4953554;28;20031;-69
2022/10/30 06:03:01;;;;;;;6.80;3.27;;;14.40;99.90;;;;;;4952757;29;20483;-69
2022/10/30 06:05:29;;;;;;;18.08;4.93;;;14.30;99.90;;;;;;4953320;29;20037;-69
2022/10/30 06:07:55;;;;;;;9.48;4.45;;;14.30;99.90;;;;;;4945817;29;20050;-68
2022/10/30 06:10:25;;;;;;;8.70;3.85;;;14.30;99.90;;;;;;4935390;29;20437;-69
2022/10/30 06:13:02;;;;;;;11.38;3.33;;;14.20;99.90;;;;;;4934755;29;20046;-68
2022/10/30 06:15:29;;;;;;;7.47;3.80;;;14.30;99.90;;;;;;4943211;29;20035;-68
2022/10/30 06:17:55;;;;;;;5.97;2.92;;;14.10;99.90;;;;;;4953345;29;20122;-68
2022/10/30 06:20:24;;;;;;;5.80;2.90;;;14.10;99.90;;;;;;4953184;28;20030;-69
2022/10/30 06:22:59;;;;;;;12.35;3.53;;;14.00;99.90;;;;;;4953875;28;20032;-69
2022/10/30 06:25:28;;;;;;;12.65;3.60;;;14.00;99.90;;;;;;4920542;29;20042;-69
2022/10/30 06:27:53;;;;;;;7.97;2.97;;;14.00;99.90;;;;;;4935210;29;20044;-69
2022/10/30 06:30:20;;;;;;;9.82;4.32;;;14.00;99.90;;;;;;4934925;29;20054;-69
2022/10/30 06:32:46;;;;;;;12.70;3.45;;;13.90;99.90;;;;;;4934724;29;20055;-68
2022/10/30 06:35:12;;;;;;;7.50;2.97;;;13.90;99.90;;;;;;4934774;29;20080;-68
2022/10/30 06:37:43;;;;;;;5.72;3.33;;;13.80;99.90;;;;;;4933914;29;20035;-69
2022/10/30 06:40:10;;;;;;;7.43;2.95;;;13.90;99.90;;;;;;4934794;29;20063;-68
2022/10/30 06:42:46;;;;;;;11.85;3.70;;;13.90;99.90;;;;;;4934205;29;20079;-69
2022/10/30 06:45:14;;;;;;;11.15;3.25;;;13.80;99.90;;;;;;4932648;29;20036;-69
2022/10/30 06:47:40;;;;;;;8.13;3.13;;;13.80;99.90;;;;;;4934421;29;20036;-69
2022/10/30 06:50:09;;;;;;;13.43;3.47;;;13.90;99.90;;;;;;4934467;29;20062;-69
2022/10/30 06:52:35;;;;;;;7.97;3.17;;;13.90;99.90;;;;;;4932626;29;20045;-68
2022/10/30 06:55:01;;;;;;;7.10;3.63;;;14.00;99.90;;;;;;4934673;29;20038;-67
2022/10/30 06:57:27;;;;;;;8.70;3.47;;;14.00;99.90;;;;;;4933273;29;20479;-68
2022/10/30 06:59:53;;;;;;;15.82;3.25;;;14.10;99.90;;;;;;4933308;29;20028;-68
2022/10/30 07:02:18;;;;;;;7.00;3.47;;;14.10;99.90;;;;;;4933289;29;20042;-68
2022/10/30 07:04:44;;;;;;;9.52;4.03;;;14.20;99.90;;;;;;4933531;29;20485;-67
2022/10/30 07:07:13;;;;;;;5.90;3.47;;;14.20;99.90;;;;;;4934599;29;20114;-69
2022/10/30 07:09:40;;;;;;;6.70;3.55;;;14.30;99.90;;;;;;4934350;29;20043;-68
2022/10/30 07:12:06;;;;;;;14.13;3.55;;;14.40;99.90;;;;;;4934463;29;20484;-67
2022/10/30 07:14:33;;;;;;;6.63;3.67;;;14.30;99.90;;;;;;4933836;29;20028;-67
2022/10/30 07:16:58;;;;;;;8.18;3.40;;;14.40;99.90;;;;;;4943577;29;20431;-67
2022/10/30 07:19:24;;;;;;;9.48;4.05;;;14.40;99.90;;;;;;4953494;28;20035;-67
2022/10/30 07:21:50;;;;;;;7.13;3.35;;;14.40;99.90;;;;;;4952089;29;20546;-67
2022/10/30 07:24:16;;;;;;;8.77;3.47;;;14.50;99.90;;;;;;4952947;29;20027;-68
2022/10/30 07:26:42;;;;;;;16.48;3.67;;;14.60;99.90;;;;;;4953441;28;20027;-67
2022/10/30 07:29:07;;;;;;;8.05;3.75;;;14.70;99.90;;;;;;4953308;28;20373;-67
2022/10/30 07:31:33;;;;;;;6.78;3.63;;;14.70;99.90;;;;;;4953490;28;20039;-67
2022/10/30 07:33:59;;;;;;;12.85;4.53;;;14.60;99.90;;;;;;4952469;28;20039;-68
2022/10/30 07:36:24;;;;;;;9.07;3.25;;;14.60;99.90;;;;;;4952490;28;20038;-67
2022/10/30 07:38:51;;;;;;;10.35;3.83;;;14.60;99.90;;;;;;4952669;29;20035;-66
2022/10/30 07:41:18;;;;;;;11.43;4.47;;;14.50;99.90;;;;;;4935874;29;20031;-67
2022/10/30 07:43:44;;;;;;;11.65;3.55;;;14.60;99.90;;;;;;4951149;29;20035;-68
2022/10/30 07:46:10;;;;;;;11.77;3.72;;;14.60;99.90;;;;;;4952009;29;20078;-67
2022/10/30 07:48:36;;;;;;;6.97;3.95;;;14.70;99.90;;;;;;4952972;28;20027;-68
2022/10/30 07:51:01;;;;;;;8.02;3.42;;;14.70;99.90;;;;;;4944135;28;20412;-67
2022/10/30 07:53:28;;;;;;;6.97;3.25;;;14.60;99.90;;;;;;4931700;29;20034;-66
2022/10/30 07:55:54;;;;;;;7.38;3.35;;;14.60;99.90;;;;;;4932362;29;20114;-67
2022/10/30 07:58:20;;;;;;;11.65;3.97;;;14.60;99.90;;;;;;4933909;29;20469;-68
2022/10/30 08:00:46;;;;;;;10.30;3.53;;;14.70;99.90;;;;;;4933788;29;20035;-67
2022/10/30 08:03:13;;;;;;;6.75;3.15;;;14.70;99.90;;;;;;4932742;29;20035;-67
2022/10/30 08:05:39;;;;;;;6.53;3.13;;;14.70;99.90;;;;;;4932386;29;20036;-67
2022/10/30 08:08:05;;;;;;;6.80;3.45;;;14.70;99.90;;;;;;4932393;29;20028;-68
2022/10/30 08:10:31;;;;;;;8.05;3.53;;;14.80;99.90;;;;;;4932721;29;20043;-68
2022/10/30 08:12:57;;;;;;;7.85;2.53;;;14.90;99.90;;;;;;4932401;29;20533;-67
2022/10/30 08:15:23;;;;;;;15.18;4.20;;;14.90;99.90;;;;;;4934583;29;20043;-68
2022/10/30 08:17:50;;;;;;;10.57;4.25;;;15.00;99.90;;;;;;4946170;28;20035;-68
2022/10/30 08:20:19;;;;;;;8.18;3.15;;;15.10;99.90;;;;;;4931836;29;20040;-68
2022/10/30 08:22:49;;;;;;;6.75;3.92;;;15.20;99.90;;;;;;4934387;29;20035;-68
2022/10/30 08:25:17;;;;;;;7.53;3.78;;;15.30;99.90;;;;;;4932407;29;20032;-68
2022/10/30 08:27:59;;;;;;;9.13;3.10;;;15.40;99.90;;;;;;4930606;29;20102;-68
2022/10/30 08:30:28;;;;;;;5.60;3.17;;;15.40;99.90;;;;;;4926480;29;20053;-68
2022/10/30 08:32:59;;;;;;;6.63;3.15;;;15.50;99.90;;;;;;4939186;29;20099;-68
2022/10/30 08:35:25;;;;;;;7.25;3.28;;;15.50;99.90;;;;;;4939562;29;20035;-67
2022/10/30 08:37:55;;;;;;;7.68;3.10;;;15.70;99.90;;;;;;4942142;29;20543;-68
2022/10/30 08:40:21;;;;;;;5.70;4.00;;;15.70;99.90;;;;;;4941560;28;20058;-67
2022/10/30 08:42:51;;;;;;;8.07;3.58;;;15.80;99.90;;;;;;4951442;29;20070;-67
2022/10/30 08:45:17;;;;;;;11.40;4.40;;;16.00;99.90;;;;;;4949096;29;20073;-67
2022/10/30 08:47:42;;;;;;;5.28;2.85;;;16.00;99.90;;;;;;4932047;29;20035;-67
2022/10/30 08:50:09;;;;;;;8.95;3.75;;;16.20;99.90;;;;;;4953313;23;20051;-82
2022/10/30 08:52:34;;;;;;;12.55;4.05;;;16.30;99.90;;;;;;4972557;28;20396;-86
2022/10/30 08:55:00;;;;;;;8.05;3.53;;;16.40;99.90;;;;;;4974727;28;20031;-85
2022/10/30 08:57:26;;;;;;;12.95;3.78;;;16.60;99.90;;;;;;4974742;28;20066;-86
2022/10/30 08:59:52;;;;;;;9.60;3.10;;;16.70;99.90;;;;;;4989393;28;20117;-86
2022/10/30 09:02:18;;;;;;;13.40;4.30;;;16.80;99.90;;;;;;4969925;28;20118;-86
2022/10/30 09:04:43;;;;;;;6.18;3.55;;;17.00;99.90;;;;;;4980223;28;20030;-86
2022/10/30 09:07:09;;;;;;;7.60;3.72;;;17.10;99.90;;;;;;4980793;28;20545;-82
2022/10/30 09:09:34;;;;;;;10.75;3.17;;;17.20;99.90;;;;;;4974636;28;20026;-84
2022/10/30 09:12:00;;;;;;;9.50;3.50;;;17.50;99.90;;;;;;4974340;28;20031;-83
2022/10/30 09:14:26;;;;;;;9.40;3.50;;;17.80;99.90;;;;;;4973378;28;20060;-83
2022/10/30 09:16:54;;;;;;;5.53;2.83;;;17.90;99.90;;;;;;4973478;28;20042;-81
2022/10/30 09:19:19;;;;;;;6.85;2.47;;;18.10;99.90;;;;;;4972026;28;20039;-83
2022/10/30 09:21:45;;;;;;;12.10;2.90;;;18.10;99.90;;;;;;4974799;28;20023;-82
2022/10/30 09:24:11;;;;;;;11.55;3.65;;;18.30;99.90;;;;;;4972533;28;20840;-82
2022/10/30 09:26:36;;;;;;;5.93;2.83;;;18.50;99.90;;;;;;4974932;28;20070;-84
2022/10/30 09:29:02;;;;;;;10.00;3.30;;;18.60;99.90;;;;;;4975227;28;20403;-83
2022/10/30 09:31:28;;;;;;;10.75;3.67;;;18.80;99.90;;;;;;4974273;28;20026;-84
2022/10/30 09:33:53;;;;;;;3.88;2.58;;;19.00;99.90;;;;;;4973018;28;20027;-82
2022/10/30 09:36:19;;;;;;;11.05;2.80;;;19.20;99.90;;;;;;4973657;28;20462;-83
2022/10/30 09:38:45;;;;;;;7.60;2.70;;;19.30;99.90;;;;;;4974491;28;20038;-82
2022/10/30 09:41:36;;;;;;;4.68;2.47;;;19.50;99.90;;;;;;4974781;28;20399;-73
2022/10/30 09:45:10;;;;;;;6.13;3.33;;;19.70;99.90;;;;;;4972943;28;20502;-80
2022/10/30 09:48:00;;;;;;;5.32;2.00;;;20.10;99.90;;;;;;4970142;28;20125;-85
2022/10/30 09:50:41;;;;;;;11.13;2.72;;;21.10;99.90;;;;;;4974343;28;20050;-74
2022/10/30 09:53:37;;;;;;;11.80;5.28;;;22.40;99.90;;;;;;4972746;28;20595;-86
2022/10/30 09:56:26;;;;;;;4.28;2.58;;;24.50;99.90;;;;;;4974569;28;20119;-85
2022/10/30 09:59:22;;;;;;;6.65;2.75;;;25.60;99.90;;;;;;4976822;28;20042;-77
2022/10/30 10:01:53;;;;;;;9.90;2.20;;;25.80;99.90;;;;;;4974487;28;20030;-80
2022/10/30 10:04:30;;;;;;;11.00;2.70;;;25.00;99.90;;;;;;4972255;28;20491;-77
2022/10/30 10:07:03;;;;;;;9.27;3.38;;;25.30;99.90;;;;;;4973186;28;20038;-77
2022/10/30 10:09:33;;;;;;;10.18;3.50;;;24.30;99.90;;;;;;4973662;28;20050;-79
2022/10/30 10:12:25;;;;;;;7.93;1.65;;;24.10;99.90;;;;;;4988812;28;20115;-81
2022/10/30 10:14:53;;;;;;;6.05;1.70;;;23.90;99.90;;;;;;4968814;28;20031;-79
2022/10/30 10:17:34;;;;;;;9.45;3.00;;;24.00;99.90;;;;;;4954738;28;20452;-79
2022/10/30 10:20:04;;;;;;;5.68;2.47;;;24.10;99.90;;;;;;4953658;29;20028;-80
2022/10/30 10:22:48;;;;;;;4.63;2.17;;;23.80;99.90;;;;;;4954370;28;20035;-82
2022/10/30 10:25:19;;;;;;;6.13;2.10;;;22.70;99.90;;;;;;4970540;28;20529;-79
2022/10/30 10:28:15;;;;;;;6.43;2.35;;;23.40;99.90;;;;;;4991803;28;20038;-79
2022/10/30 10:31:18;;;;;;;5.72;2.65;;;23.50;99.90;;;;;;4992909;28;20101;-80
2022/10/30 10:34:21;;;;;;;5.18;1.95;;;23.60;99.90;;;;;;4952323;29;20031;-79
2022/10/30 10:37:02;;;;;;;9.05;2.25;;;23.60;99.90;;;;;;4965309;28;20026;-79
2022/10/30 10:39:41;;;;;;;8.05;2.45;;;24.10;99.90;;;;;;4973057;28;20045;-77
2022/10/30 10:42:50;;;;;;;5.82;1.90;;;24.70;99.50;;;;;;4973209;28;20816;-84
2022/10/30 10:45:29;;;;;;;4.18;1.75;;;24.50;99.90;;;;;;4973186;28;20037;-80
2022/10/30 10:48:46;;;;;;;4.57;1.85;;;24.10;99.90;;;;;;4971861;28;20023;-79
2022/10/30 10:51:27;;;;;;;3.85;1.33;;;24.50;99.70;;;;;;4970544;28;20822;-78
2022/10/30 10:54:07;;;;;;;5.88;1.50;;;24.80;98.60;;;;;;4971302;28;20026;-81
2022/10/30 10:56:41;;;;;;;5.22;2.00;;;24.00;99.50;;;;;;4971880;28;20027;-80
2022/10/30 10:59:32;;;;;;;4.25;1.95;;;24.40;99.80;;;;;;4971775;28;20074;-79
2022/10/30 11:02:08;;;;;;;7.60;2.60;;;24.00;99.90;;;;;;4972686;28;20056;-80
2022/10/30 11:04:40;;;;;;;8.05;2.55;;;24.00;98.50;;;;;;4972075;28;20114;-80
2022/10/30 11:07:24;;;;;;;8.45;2.25;;;23.80;99.40;;;;;;4970819;28;20038;-80
2022/10/30 11:09:55;;;;;;;5.05;1.90;;;23.60;99.80;;;;;;4964674;28;20110;-80
2022/10/30 11:12:27;;;;;;;6.38;1.92;;;24.70;99.20;;;;;;4963035;28;20399;-80
2022/10/30 11:14:53;;;;;;;4.72;1.90;;;24.80;98.30;;;;;;4972237;28;20035;-79
2022/10/30 11:17:42;;;;;;;5.18;2.53;;;25.40;97.50;;;;;;4972425;28;20041;-78
2022/10/30 11:20:26;;;;;;;7.95;2.58;;;25.60;96.40;;;;;;4971408;28;20035;-79
2022/10/30 11:22:52;;;;;;;3.90;1.88;;;25.60;96.50;;;;;;4972647;28;20058;-79
2022/10/30 11:25:24;;;;;;;4.28;1.85;;;24.40;98.60;;;;;;4971998;28;20039;-79
2022/10/30 11:27:59;;;;;;;8.40;1.88;;;24.70;97.90;;;;;;4972189;28;20027;-79
2022/10/30 11:30:27;;;;;;;6.30;1.80;;;25.10;97.10;;;;;;4972315;28;20038;-79
2022/10/30 11:32:58;;;;;;;7.32;2.00;;;25.60;96.90;;;;;;4971635;28;20037;-78
2022/10/30 11:35:24;;;;;;;9.77;2.30;;;26.70;95.80;;;;;;4972117;28;20078;-81
2022/10/30 11:38:18;;;;;;;7.40;2.17;;;27.50;95.00;;;;;;4971574;28;20111;-79
2022/10/30 11:40:51;;;;;;;7.75;1.95;;;26.90;95.70;;;;;;4979363;28;20042;-76
2022/10/30 11:43:22;;;;;;;5.53;1.42;;;27.10;94.30;;;;;;4954356;28;20043;-77
2022/10/30 11:45:49;;;;;;;6.22;1.60;;;27.00;94.90;;;;;;4970951;28;20031;-77
2022/10/30 11:48:31;;;;;;;10.48;2.35;;;27.10;94.30;;;;;;4971155;28;20150;-78
2022/10/30 11:51:02;;;;;;;4.05;1.52;;;26.90;94.00;;;;;;4971985;28;20043;-78
2022/10/30 11:53:47;;;;;;;3.15;1.88;;;27.20;93.70;;;;;;4970516;28;20063;-79
2022/10/30 11:56:23;;;;;;;6.03;2.03;;;27.30;93.80;;;;;;4972119;28;20034;-79
2022/10/30 11:58:55;;;;;;;4.40;1.35;;;28.40;92.80;;;;;;4972327;28;20046;-77
2022/10/30 12:01:28;;;;;;;5.10;1.73;;;28.90;91.60;;;;;;4967146;28;20019;-79
2022/10/30 12:03:56;;;;;;;6.38;2.03;;;26.60;93.30;;;;;;4950963;28;20046;-77
2022/10/30 12:06:21;;;;;;;3.17;1.38;;;28.10;92.20;;;;;;4951593;28;20063;-76
2022/10/30 12:09:10;;;;;;;2.80;1.30;;;28.80;91.90;;;;;;4952572;29;20113;-79
2022/10/30 12:11:38;;;;;;;6.97;2.17;;;28.50;91.10;;;;;;4951937;28;20031;-77
2022/10/30 12:14:05;;;;;;;3.78;1.80;;;27.70;91.60;;;;;;4951708;28;20483;-79
2022/10/30 12:16:32;;;;;;;4.45;1.30;;;29.20;90.90;;;;;;4952876;29;20031;-77
2022/10/30 12:19:05;;;;;;;5.18;1.80;;;28.90;90.40;;;;;;4951577;29;20035;-78
2022/10/30 12:21:39;;;;;;;7.35;2.08;;;27.70;90.70;;;;;;4951700;28;20059;-84
2022/10/30 12:24:15;;;;;;;9.32;2.47;;;26.90;91.70;;;;;;4972595;28;20032;-74
2022/10/30 12:26:45;;;;;;;5.38;1.33;;;27.70;90.80;;;;;;4977360;28;20035;-75
2022/10/30 12:29:16;;;;;;;9.13;2.33;;;28.40;89.70;;;;;;4977176;28;20057;-76
2022/10/30 12:31:59;;;;;;;8.43;1.63;;;28.30;90.70;;;;;;4977277;28;20525;-74
2022/10/30 12:34:45;;;;;;;2.88;1.42;;;29.20;89.20;;;;;;4975428;28;20122;-74
2022/10/30 12:37:19;;;;;;;6.35;2.17;;;29.00;86.40;;;;;;4976883;28;20023;-75
2022/10/30 12:40:13;;;;;;;3.88;1.50;;;28.50;86.40;;;;;;4992756;28;20031;-75
2022/10/30 12:42:50;;;;;;;5.38;1.63;;;28.20;89.00;;;;;;4958317;28;20027;-73
2022/10/30 12:45:34;;;;;;;5.90;1.40;;;28.70;87.30;;;;;;4958182;28;20487;-73
2022/10/30 12:48:21;;;;;;;4.95;1.95;;;26.80;89.00;;;;;;4958983;28;20027;-74
2022/10/30 12:51:17;;;;;;;4.57;1.55;;;26.40;90.10;;;;;;4957717;29;20095;-73
2022/10/30 12:53:57;;;;;;;9.25;2.00;;;26.50;89.80;;;;;;4956976;29;20036;-70
2022/10/30 12:56:32;;;;;;;7.25;1.55;;;26.00;90.70;;;;;;4958584;28;20149;-73
2022/10/30 12:59:19;;;;;;;6.25;1.77;;;26.10;90.70;;;;;;4957497;29;20043;-71
2022/10/30 13:01:56;;;;;;;5.53;2.70;;;25.60;91.00;;;;;;4958650;28;20039;-71
2022/10/30 13:04:30;;;;;;;4.93;1.13;;;25.40;90.90;;;;;;4956885;28;20090;-71
2022/10/30 13:07:26;;;;;;;4.68;1.23;;;25.80;90.70;;;;;;4958780;28;20110;-71